Quantico MCAF, Turner field Quantico US
ICAO: KNYG
IATA: NYG
Category: Medium
Scheduled Services: No

Elevation: 10 ft
TransAlt. 18000 ft.

Airport Communications:
POTOMAC APP/DEP:124.65
ARRIVAL:127.05
ATIS:26.315
GND:121.75
PMSV METRO/BASE OPS:35.53
TWR:118.6

KNYG Zoom In..

Runways:

(A) RW 02 length 4250 ft width 200 ft
---- / hdg 24

(B) RW 20 length 4250 ft width 200 ft
---- / hdg 204

Location; KNYG
Day. 29 / Time. 18.56 Zulu
* Altimeter: 30.13
* Temperature: 14° c. 57.2°f.
* Wind from: 170° Speed 05 kn.
Dewpoint: 04° c.
Visibility: 9 Statute Miles.
Clouds: Clear (automated report).

KNYG 291856Z AUTO 17005KT 9SM CLR 14/04 A3013 RMK AO2 SLP204 T01390039 $

Going to: --> -->


Wind From 170°
Speed 05 kn.

 
 
jpsmedia worldairports.se 2020   terms of use